createdAt,value
2023-02-23T00:01:07.778Z,6.07
2023-02-23T00:03:36.668Z,7.50
2023-02-23T00:06:09.256Z,9.63
2023-02-23T00:08:39.462Z,7.57
2023-02-23T00:11:11.532Z,7.63
2023-02-23T00:13:41.750Z,8.43
2023-02-23T00:16:14.283Z,7.43
2023-02-23T00:18:48.733Z,7.50
2023-02-23T00:21:20.541Z,7.38
2023-02-23T00:23:54.355Z,7.40
2023-02-23T00:26:25.164Z,7.25
2023-02-23T00:28:56.325Z,7.40
2023-02-23T00:31:27.534Z,5.57
2023-02-23T00:33:57.514Z,6.55
2023-02-23T00:36:30.346Z,5.80
2023-02-23T00:39:02.640Z,6.97
2023-02-23T00:41:31.834Z,5.82
2023-02-23T00:44:02.350Z,6.15
2023-02-23T00:46:32.186Z,5.75
2023-02-23T00:49:01.289Z,5.75
2023-02-23T00:51:32.827Z,5.30
2023-02-23T00:54:02.684Z,5.53
2023-02-23T00:56:32.288Z,4.85
2023-02-23T00:59:01.044Z,5.10
2023-02-23T01:01:30.697Z,5.05
2023-02-23T01:03:59.410Z,6.45
2023-02-23T01:06:28.360Z,6.03
2023-02-23T01:09:01.630Z,6.07
2023-02-23T01:11:31.272Z,5.37
2023-02-23T01:14:01.504Z,6.40
2023-02-23T01:16:32.132Z,5.50
2023-02-23T01:19:03.679Z,5.05
2023-02-23T01:21:34.953Z,6.55
2023-02-23T01:24:06.828Z,5.63
2023-02-23T01:26:39.283Z,6.00
2023-02-23T01:29:10.860Z,5.50
2023-02-23T01:31:40.946Z,6.35
2023-02-23T01:34:10.481Z,5.93
2023-02-23T01:36:41.909Z,6.68
2023-02-23T01:39:15.413Z,6.53
2023-02-23T01:41:43.992Z,6.65
2023-02-23T01:44:45.427Z,6.30
2023-02-23T01:47:17.496Z,6.60
2023-02-23T01:49:46.392Z,5.53
2023-02-23T01:52:19.188Z,5.75
2023-02-23T01:54:53.614Z,5.78
2023-02-23T01:57:27.346Z,6.35
2023-02-23T01:59:57.336Z,6.18
2023-02-23T02:02:35.319Z,5.95
2023-02-23T02:05:06.683Z,6.57
2023-02-23T02:07:36.950Z,6.32
2023-02-23T02:10:34.664Z,6.80
2023-02-23T02:13:06.215Z,6.43
2023-02-23T02:15:38.904Z,6.30
2023-02-23T02:18:18.945Z,7.85
2023-02-23T02:21:12.872Z,6.43
2023-02-23T02:24:11.286Z,6.10
2023-02-23T02:26:50.581Z,6.45
2023-02-23T02:29:45.282Z,6.05
2023-02-23T02:35:38.214Z,6.68
2023-02-23T02:38:27.507Z,6.82
2023-02-23T02:41:04.073Z,6.72
2023-02-23T02:43:41.771Z,6.43
2023-02-23T02:46:17.638Z,7.63
2023-02-23T02:48:52.537Z,7.10
2023-02-23T02:51:29.078Z,6.38
2023-02-23T02:54:07.352Z,7.22
2023-02-23T02:56:40.723Z,7.10
2023-02-23T02:59:30.615Z,6.70
2023-02-23T03:02:16.835Z,8.25
2023-02-23T03:05:02.847Z,6.85
2023-02-23T03:07:55.302Z,6.90
2023-02-23T03:10:51.981Z,6.97
2023-02-23T03:13:47.069Z,6.65
2023-02-23T03:16:45.547Z,7.70
2023-02-23T03:19:36.968Z,7.57
2023-02-23T03:22:31.040Z,8.00
2023-02-23T03:25:24.015Z,6.95
2023-02-23T03:28:16.955Z,7.28
2023-02-23T03:31:10.895Z,7.88
2023-02-23T03:34:03.679Z,8.13
2023-02-23T03:36:56.106Z,7.63
2023-02-23T03:39:48.455Z,7.57
2023-02-23T03:42:40.317Z,6.90
2023-02-23T03:45:33.438Z,7.57
2023-02-23T03:48:22.902Z,8.07
2023-02-23T03:51:13.322Z,7.47
2023-02-23T03:54:04.716Z,7.60
2023-02-23T03:56:54.280Z,8.50
2023-02-23T03:59:44.594Z,7.38
2023-02-23T04:02:35.594Z,7.18
2023-02-23T04:05:26.696Z,7.47
2023-02-23T04:08:13.796Z,7.72
2023-02-23T04:11:09.149Z,8.20
2023-02-23T04:13:39.353Z,8.85
2023-02-23T04:16:08.605Z,7.15
2023-02-23T04:18:40.674Z,7.55
2023-02-23T04:21:11.066Z,8.13
2023-02-23T04:23:41.764Z,8.07
2023-02-23T04:26:11.063Z,8.70
2023-02-23T04:28:39.882Z,7.45
2023-02-23T04:31:08.368Z,9.90
2023-02-23T04:33:39.204Z,8.23
2023-02-23T04:36:09.210Z,7.45
2023-02-23T04:38:37.981Z,9.15
2023-02-23T04:41:07.010Z,8.88
2023-02-23T04:43:36.015Z,9.05
2023-02-23T04:46:04.750Z,8.55
2023-02-23T04:48:33.133Z,8.23
2023-02-23T04:51:02.967Z,8.65
2023-02-23T04:53:31.770Z,8.90
2023-02-23T04:56:00.696Z,9.00
2023-02-23T04:58:29.650Z,8.43
2023-02-23T05:01:06.389Z,8.98
2023-02-23T05:03:36.040Z,8.85
2023-02-23T05:06:06.485Z,8.95
2023-02-23T05:08:35.877Z,8.63
2023-02-23T05:11:04.389Z,9.25
2023-02-23T05:13:34.115Z,8.48
2023-02-23T05:16:03.549Z,9.77
2023-02-23T05:18:34.069Z,9.35
2023-02-23T05:21:10.212Z,9.48
2023-02-23T05:23:41.235Z,9.73
2023-02-23T05:26:13.122Z,10.07
2023-02-23T05:28:44.071Z,8.88
2023-02-23T05:31:13.886Z,9.23
2023-02-23T05:33:44.300Z,9.48
2023-02-23T05:36:17.834Z,10.13
2023-02-23T05:38:47.433Z,10.45
2023-02-23T05:41:18.262Z,10.43
2023-02-23T05:43:47.303Z,9.98
2023-02-23T05:46:19.786Z,9.88
2023-02-23T05:48:49.560Z,10.50
2023-02-23T05:51:21.106Z,9.63
2023-02-23T05:53:49.586Z,9.40
2023-02-23T05:56:21.553Z,9.98
2023-02-23T05:58:50.800Z,11.88
2023-02-23T06:01:20.800Z,10.45
2023-02-23T06:03:50.207Z,10.00
2023-02-23T06:06:20.820Z,10.32
2023-02-23T06:08:50.175Z,9.85
2023-02-23T06:11:19.006Z,9.57
2023-02-23T06:13:48.354Z,9.50
2023-02-23T06:16:17.214Z,9.23
2023-02-23T06:18:46.297Z,8.18
2023-02-23T06:21:14.804Z,8.15
2023-02-23T06:23:45.862Z,8.43
2023-02-23T06:26:14.272Z,8.10
2023-02-23T06:28:43.239Z,7.53
2023-02-23T06:31:13.353Z,9.30
2023-02-23T06:33:41.719Z,9.63
2023-02-23T06:36:10.831Z,8.02
2023-02-23T06:38:39.585Z,8.25
2023-02-23T06:41:13.641Z,8.75
2023-02-23T06:46:10.233Z,7.93
2023-02-23T06:48:39.079Z,8.00
2023-02-23T06:51:08.621Z,8.15
2023-02-23T06:53:37.210Z,8.98
2023-02-23T06:56:07.074Z,9.00
2023-02-23T06:58:40.261Z,10.18
2023-02-23T07:01:08.760Z,9.60
2023-02-23T07:03:37.391Z,9.05
2023-02-23T07:06:06.455Z,9.20
2023-02-23T07:08:35.900Z,10.95
2023-02-23T07:11:08.455Z,11.02
2023-02-23T07:13:38.547Z,10.43
2023-02-23T07:16:07.718Z,11.45
2023-02-23T07:18:36.670Z,11.68
2023-02-23T07:21:05.708Z,12.18
2023-02-23T07:23:34.091Z,10.65
2023-02-23T07:26:03.457Z,10.63
2023-02-23T07:28:32.543Z,11.27
2023-02-23T07:31:02.889Z,9.40
2023-02-23T07:33:32.784Z,11.20
2023-02-23T07:36:01.615Z,10.20
2023-02-23T07:38:30.647Z,10.80
2023-02-23T07:40:59.667Z,11.02
2023-02-23T07:43:28.528Z,12.25
2023-02-23T07:46:03.088Z,11.55
2023-02-23T07:48:33.640Z,11.38
2023-02-23T07:51:04.282Z,11.25
2023-02-23T07:53:33.324Z,10.45
2023-02-23T07:56:03.719Z,11.30
2023-02-23T07:58:33.169Z,12.18
2023-02-23T08:01:06.088Z,12.60
2023-02-23T08:03:34.842Z,12.70
2023-02-23T08:06:04.297Z,11.88
2023-02-23T08:08:34.328Z,13.32
2023-02-23T08:11:03.258Z,12.63
2023-02-23T08:13:32.629Z,12.75
2023-02-23T08:16:03.164Z,14.35
2023-02-23T08:18:31.693Z,12.52
2023-02-23T08:21:01.558Z,12.40
2023-02-23T08:23:31.956Z,13.00
2023-02-23T08:26:00.967Z,14.48
2023-02-23T08:28:29.785Z,13.13
2023-02-23T08:30:59.567Z,13.45
2023-02-23T08:33:31.893Z,12.95
2023-02-23T08:36:03.056Z,14.05
2023-02-23T08:38:32.311Z,13.05
2023-02-23T08:41:02.768Z,13.48
2023-02-23T08:43:31.444Z,13.68
2023-02-23T08:46:00.025Z,14.77
2023-02-23T08:48:29.901Z,14.77
2023-02-23T08:50:59.287Z,14.43
2023-02-23T08:53:29.877Z,12.63
2023-02-23T08:55:59.500Z,12.95
2023-02-23T08:58:31.607Z,13.85
2023-02-23T09:01:00.246Z,13.35
2023-02-23T09:03:31.671Z,13.50
2023-02-23T09:06:07.693Z,13.13
2023-02-23T09:08:36.309Z,14.85
2023-02-23T09:11:05.567Z,14.50
2023-02-23T09:13:34.639Z,14.00
2023-02-23T09:16:04.242Z,14.93
2023-02-23T09:18:34.195Z,13.48
2023-02-23T09:21:07.097Z,13.88
2023-02-23T09:23:36.210Z,15.90
2023-02-23T09:26:06.228Z,13.95
2023-02-23T09:28:35.323Z,14.30
2023-02-23T09:31:10.042Z,13.70
2023-02-23T09:33:40.861Z,14.32
2023-02-23T09:36:13.444Z,14.07
2023-02-23T09:38:42.034Z,14.50
2023-02-23T09:41:32.144Z,14.35
2023-02-23T09:44:05.753Z,12.85
2023-02-23T09:46:43.447Z,15.10
2023-02-23T09:49:19.260Z,13.95
2023-02-23T09:51:51.853Z,16.75
2023-02-23T09:54:24.531Z,14.50
2023-02-23T09:56:56.585Z,15.18
2023-02-23T09:59:26.616Z,15.13
2023-02-23T10:02:02.485Z,14.38
2023-02-23T10:04:38.403Z,14.13
2023-02-23T10:07:14.362Z,14.45
2023-02-23T10:10:09.710Z,15.75
2023-02-23T10:12:46.883Z,13.70
2023-02-23T10:15:25.393Z,16.88
2023-02-23T10:18:04.573Z,16.33
2023-02-23T10:20:45.380Z,14.95
2023-02-23T10:23:18.668Z,15.43
2023-02-23T10:25:51.342Z,14.80
2023-02-23T10:28:22.813Z,15.25
2023-02-23T10:30:52.654Z,13.98
2023-02-23T10:33:26.103Z,14.18
2023-02-23T10:36:12.967Z,14.38
2023-02-23T10:38:42.273Z,15.23
2023-02-23T10:41:15.820Z,15.52
2023-02-23T10:43:45.591Z,13.80
2023-02-23T10:46:22.810Z,15.75
2023-02-23T10:48:56.030Z,15.02
2023-02-23T10:51:30.045Z,14.03
2023-02-23T10:56:46.445Z,13.57
2023-02-23T10:59:22.442Z,13.63
2023-02-23T11:02:01.839Z,14.00
2023-02-23T11:04:33.029Z,13.35
2023-02-23T11:07:18.257Z,14.18
2023-02-23T11:09:48.368Z,15.23
2023-02-23T11:12:23.052Z,14.05
2023-02-23T11:14:58.586Z,13.70
2023-02-23T11:17:31.661Z,13.82
2023-02-23T11:20:03.198Z,12.90
2023-02-23T11:22:38.937Z,13.63
2023-02-23T11:25:20.370Z,13.43
2023-02-23T11:27:54.368Z,12.40
2023-02-23T11:32:56.150Z,12.02
2023-02-23T11:35:32.145Z,12.80
2023-02-23T11:38:17.560Z,12.45
2023-02-23T11:41:01.594Z,12.00
2023-02-23T11:43:30.212Z,12.48
2023-02-23T11:46:01.263Z,12.68
2023-02-23T11:48:35.342Z,12.05
2023-02-23T11:53:40.234Z,13.07
2023-02-23T11:56:12.872Z,13.25
2023-02-23T11:58:46.200Z,13.23
2023-02-23T12:01:17.445Z,13.80
2023-02-23T12:03:52.391Z,15.10
2023-02-23T12:06:33.283Z,13.98
2023-02-23T12:09:13.576Z,12.40
2023-02-23T12:11:48.617Z,11.77
2023-02-23T12:14:28.280Z,11.65
2023-02-23T12:17:04.243Z,14.68
2023-02-23T12:19:38.722Z,13.60
2023-02-23T12:22:14.011Z,11.23
2023-02-23T12:24:50.879Z,11.13
2023-02-23T12:27:24.486Z,10.43
2023-02-23T12:30:12.002Z,12.30
2023-02-23T12:32:48.500Z,11.30
2023-02-23T12:35:23.695Z,11.15
2023-02-23T12:37:57.615Z,10.65
2023-02-23T12:40:29.945Z,10.52
2023-02-23T12:43:06.056Z,11.85
2023-02-23T12:45:42.625Z,10.40
2023-02-23T12:48:21.045Z,8.82
2023-02-23T12:50:54.620Z,9.65
2023-02-23T12:53:27.716Z,9.43
2023-02-23T12:56:16.698Z,9.60
2023-02-23T12:58:52.495Z,7.85
2023-02-23T13:01:27.707Z,8.23
2023-02-23T13:04:23.870Z,7.97
2023-02-23T13:07:03.223Z,9.23
2023-02-23T13:09:45.783Z,8.00
2023-02-23T13:12:32.453Z,7.45
2023-02-23T13:15:13.389Z,8.40
2023-02-23T13:17:48.471Z,7.47
2023-02-23T13:20:25.600Z,8.40
2023-02-23T13:22:59.871Z,8.63
2023-02-23T13:25:38.470Z,8.90
2023-02-23T13:28:15.820Z,7.72
2023-02-23T13:30:48.114Z,6.68
2023-02-23T13:33:38.418Z,7.18
2023-02-23T13:36:14.751Z,7.68
2023-02-23T13:38:53.977Z,6.88
2023-02-23T13:41:36.740Z,8.10
2023-02-23T13:44:17.259Z,7.47
2023-02-23T13:46:51.330Z,9.18
2023-02-23T13:52:01.946Z,8.48
2023-02-23T13:54:34.718Z,8.90
2023-02-23T13:57:05.805Z,7.55
2023-02-23T13:59:43.957Z,8.60
2023-02-23T14:02:29.018Z,8.45
2023-02-23T14:04:59.671Z,8.63
2023-02-23T14:07:31.306Z,7.95
2023-02-23T14:10:06.770Z,10.90
2023-02-23T14:12:39.878Z,9.18
2023-02-23T14:15:43.811Z,8.82
2023-02-23T14:18:35.184Z,8.77
2023-02-23T14:21:15.083Z,8.70
2023-02-23T14:23:55.698Z,8.25
2023-02-23T14:26:43.357Z,6.53
2023-02-23T14:29:27.970Z,6.18
2023-02-23T14:32:05.256Z,6.40
2023-02-23T14:34:50.108Z,6.45
2023-02-23T14:37:22.206Z,7.43
2023-02-23T14:39:52.430Z,7.18
2023-02-23T14:42:25.507Z,7.22
2023-02-23T14:44:55.726Z,7.93
2023-02-23T14:47:29.350Z,7.40
2023-02-23T14:50:00.895Z,8.77
2023-02-23T14:52:34.892Z,9.73
2023-02-23T14:55:24.136Z,7.90
2023-02-23T14:57:54.616Z,7.55
2023-02-23T15:00:26.745Z,9.18
2023-02-23T15:02:59.871Z,8.68
2023-02-23T15:05:31.475Z,9.00
2023-02-23T15:08:02.898Z,7.60
2023-02-23T15:10:35.962Z,7.68
2023-02-23T15:13:12.597Z,6.88
2023-02-23T15:15:46.518Z,7.95
2023-02-23T15:18:23.415Z,7.35
2023-02-23T15:20:52.960Z,8.40
2023-02-23T15:23:22.289Z,8.18
2023-02-23T15:25:51.404Z,7.63
2023-02-23T15:28:25.957Z,8.48
2023-02-23T15:30:56.549Z,8.20
2023-02-23T15:33:29.270Z,9.40
2023-02-23T15:36:09.847Z,10.18
2023-02-23T15:38:46.647Z,8.50
2023-02-23T15:41:23.394Z,8.20
2023-02-23T15:43:52.595Z,8.13
2023-02-23T15:46:26.697Z,8.90
2023-02-23T15:49:03.379Z,9.95
2023-02-23T15:51:37.430Z,9.07
2023-02-23T15:56:47.549Z,7.93
2023-02-23T15:59:24.191Z,8.85
2023-02-23T16:01:56.177Z,7.68
2023-02-23T16:04:32.752Z,8.25
2023-02-23T16:07:18.782Z,8.95
2023-02-23T16:09:53.670Z,8.88
2023-02-23T16:12:26.363Z,8.77
2023-02-23T16:14:58.692Z,8.05
2023-02-23T16:17:30.837Z,8.20
2023-02-23T16:20:17.341Z,8.20
2023-02-23T16:22:47.740Z,9.82
2023-02-23T16:25:18.553Z,8.95
2023-02-23T16:27:48.628Z,8.52
2023-02-23T16:30:23.573Z,9.15
2023-02-23T16:33:08.023Z,8.55
2023-02-23T16:38:14.862Z,7.40
2023-02-23T16:40:44.908Z,8.23
2023-02-23T16:43:13.813Z,7.25
2023-02-23T16:45:44.370Z,6.95
2023-02-23T16:48:18.157Z,7.25
2023-02-23T16:50:48.771Z,6.85
2023-02-23T16:53:17.220Z,7.50
2023-02-23T16:55:53.225Z,6.72
2023-02-23T16:58:25.643Z,6.22
2023-02-23T17:00:56.338Z,8.07
2023-02-23T17:03:27.196Z,7.32
2023-02-23T17:05:58.066Z,7.47
2023-02-23T17:08:28.991Z,8.23
2023-02-23T17:10:58.737Z,7.15
2023-02-23T17:13:29.363Z,7.68
2023-02-23T17:16:02.124Z,7.30
2023-02-23T17:18:34.322Z,7.65
2023-02-23T17:21:10.073Z,6.78
2023-02-23T17:23:42.838Z,7.50
2023-02-23T17:26:13.558Z,6.72
2023-02-23T17:28:43.378Z,6.72
2023-02-23T17:31:12.580Z,7.00
2023-02-23T17:33:42.801Z,7.50
2023-02-23T17:36:17.323Z,7.53
2023-02-23T17:38:46.855Z,6.45
2023-02-23T17:41:19.285Z,6.90
2023-02-23T17:43:48.544Z,6.55
2023-02-23T17:46:17.742Z,7.63
2023-02-23T17:48:48.861Z,6.43
2023-02-23T17:51:22.783Z,7.07
2023-02-23T17:53:52.692Z,6.72
2023-02-23T17:56:24.387Z,5.60
2023-02-23T17:58:54.360Z,5.53
2023-02-23T18:01:24.627Z,5.93
2023-02-23T18:03:53.418Z,6.43
2023-02-23T18:06:23.752Z,6.15
2023-02-23T18:08:52.427Z,7.90
2023-02-23T18:11:21.029Z,5.85
2023-02-23T18:13:51.408Z,7.10
2023-02-23T18:16:23.474Z,6.57
2023-02-23T18:18:53.008Z,7.72
2023-02-23T18:21:24.589Z,9.27
2023-02-23T18:23:54.180Z,8.63
2023-02-23T18:26:25.623Z,8.57
2023-02-23T18:28:57.485Z,8.35
2023-02-23T18:31:29.650Z,8.95
2023-02-23T18:34:02.545Z,9.60
2023-02-23T18:36:35.714Z,8.13
2023-02-23T18:39:06.937Z,6.75
2023-02-23T18:41:35.977Z,7.13
2023-02-23T18:44:08.755Z,8.32
2023-02-23T18:46:38.499Z,8.80
2023-02-23T18:49:08.080Z,7.55
2023-02-23T18:51:38.655Z,6.90
2023-02-23T18:54:11.691Z,7.35
2023-02-23T18:56:42.346Z,8.43
2023-02-23T18:59:12.570Z,7.45
2023-02-23T19:01:43.520Z,7.75
2023-02-23T19:04:13.834Z,7.53
2023-02-23T19:06:47.290Z,7.72
2023-02-23T19:09:22.101Z,7.22
2023-02-23T19:11:51.478Z,7.93
2023-02-23T19:14:32.861Z,7.13
2023-02-23T19:17:11.221Z,6.55
2023-02-23T19:19:40.480Z,8.13
2023-02-23T19:22:11.521Z,7.00
2023-02-23T19:24:41.842Z,7.75
2023-02-23T19:27:12.268Z,8.13
2023-02-23T19:29:43.056Z,7.05
2023-02-23T19:32:13.009Z,8.73
2023-02-23T19:34:42.371Z,7.93
2023-02-23T19:37:12.898Z,10.18
2023-02-23T19:39:42.710Z,9.73
2023-02-23T19:42:12.723Z,11.27
2023-02-23T19:44:42.432Z,11.00
2023-02-23T19:47:12.675Z,11.38
2023-02-23T19:49:43.601Z,11.65
2023-02-23T19:52:14.434Z,11.15
2023-02-23T19:54:44.876Z,12.60
2023-02-23T19:57:13.507Z,11.45
2023-02-23T19:59:42.564Z,10.77
2023-02-23T20:02:12.624Z,11.35
2023-02-23T20:04:41.738Z,11.07
2023-02-23T20:07:14.748Z,11.38
2023-02-23T20:09:45.441Z,10.05
2023-02-23T20:12:14.898Z,11.50
2023-02-23T20:14:45.873Z,10.88
2023-02-23T20:17:15.242Z,10.57
2023-02-23T20:19:44.136Z,10.73
2023-02-23T20:22:16.632Z,9.65
2023-02-23T20:24:45.421Z,9.27
2023-02-23T20:27:14.397Z,8.57
2023-02-23T20:29:44.414Z,9.30
2023-02-23T20:32:13.759Z,11.05
2023-02-23T20:34:43.137Z,10.60
2023-02-23T20:37:12.396Z,10.50
2023-02-23T20:39:42.470Z,11.02
2023-02-23T20:42:12.070Z,10.00
2023-02-23T20:44:40.568Z,9.93
2023-02-23T20:47:10.392Z,10.18
2023-02-23T20:49:42.039Z,10.93
2023-02-23T20:52:12.482Z,10.50
2023-02-23T20:54:44.695Z,9.05
2023-02-23T20:57:14.350Z,9.10
2023-02-23T20:59:43.561Z,9.68
2023-02-23T21:02:14.184Z,9.98
2023-02-23T21:04:44.344Z,10.88
2023-02-23T21:07:13.809Z,10.07
2023-02-23T21:09:46.005Z,9.73
2023-02-23T21:12:16.845Z,10.88
2023-02-23T21:14:45.515Z,9.82
2023-02-23T21:17:14.315Z,9.27
2023-02-23T21:19:43.265Z,9.60
2023-02-23T21:22:16.646Z,10.90
2023-02-23T21:24:49.003Z,9.52
2023-02-23T21:27:18.083Z,10.73
2023-02-23T21:29:47.495Z,9.02
2023-02-23T21:32:17.143Z,9.82
2023-02-23T21:34:46.208Z,11.13
2023-02-23T21:37:16.454Z,10.60
2023-02-23T21:39:48.395Z,9.73
2023-02-23T21:42:23.905Z,10.60
2023-02-23T21:44:53.345Z,10.52
2023-02-23T21:47:22.288Z,13.35
2023-02-23T21:49:51.267Z,11.55
2023-02-23T21:52:20.084Z,11.65
2023-02-23T21:54:52.627Z,11.75
2023-02-23T21:57:25.596Z,11.63
2023-02-23T21:59:55.349Z,12.27
2023-02-23T22:02:24.569Z,10.93
2023-02-23T22:05:08.021Z,13.38
2023-02-23T22:07:38.889Z,12.68
2023-02-23T22:10:12.495Z,12.07
2023-02-23T22:12:42.027Z,9.50
2023-02-23T22:15:11.828Z,9.57
2023-02-23T22:17:40.617Z,8.98
2023-02-23T22:20:11.557Z,8.68
2023-02-23T22:22:41.063Z,7.93
2023-02-23T22:25:13.064Z,8.43
2023-02-23T22:27:44.021Z,8.30
2023-02-23T22:30:14.172Z,8.25
2023-02-23T22:32:43.438Z,10.50
2023-02-23T22:35:13.006Z,9.80
2023-02-23T22:37:43.060Z,11.07
2023-02-23T22:40:15.816Z,10.35
2023-02-23T22:42:48.772Z,10.95
2023-02-23T22:45:19.306Z,10.55
2023-02-23T22:47:49.050Z,10.82
2023-02-23T22:50:20.063Z,10.07
2023-02-23T22:52:49.112Z,10.02
2023-02-23T22:55:22.041Z,11.07
2023-02-23T22:57:51.688Z,10.73
2023-02-23T23:00:21.218Z,10.25
2023-02-23T23:02:49.763Z,7.97
2023-02-23T23:05:20.028Z,9.25
2023-02-23T23:07:49.411Z,9.07
2023-02-23T23:10:21.516Z,9.23
2023-02-23T23:12:50.508Z,9.73
2023-02-23T23:15:23.006Z,10.27
2023-02-23T23:17:52.370Z,9.07
2023-02-23T23:20:26.244Z,9.60
2023-02-23T23:22:57.841Z,9.32
2023-02-23T23:25:30.582Z,10.65
2023-02-23T23:27:59.696Z,10.02
2023-02-23T23:30:29.612Z,9.70
2023-02-23T23:32:59.124Z,10.80
2023-02-23T23:35:29.889Z,10.43
2023-02-23T23:38:02.364Z,9.52
2023-02-23T23:40:35.938Z,10.25
2023-02-23T23:43:07.971Z,11.32
2023-02-23T23:45:40.993Z,10.05
2023-02-23T23:48:10.212Z,10.20
2023-02-23T23:50:40.373Z,10.05
2023-02-23T23:53:11.113Z,10.60
2023-02-23T23:55:41.649Z,11.60
2023-02-23T23:58:13.091Z,10.20
